Flight Information

DEPARTURE
SANTA ANA, CA
Elevation:
55
Runways:
2L/20R - 5700x150 - ASPH-G
2R/20L - 2886x75 - ASPH-G
ATIS:
126 714-546-2279
Clearance Delivery:
118.0 121.85
Ground:
120.8 (East) 132.25 (West)
Tower:
119.9 (Rwy 2R-20L) 126.8 (Rwy 2L-20R)
DESTINATION
SANTA BARBARA, CA
Elevation:
13
TPA:
1013 (est.)
Runways:
7/25 - 6052x150 - ASPH-G
15R/33L - 4184x100 - ASPH-G
15L/33R - 4180x75 - ASPH-G
ATIS:
132.65
Tower:
119.7
Ground:
121.7


107.9 NM295° True-14° Var281° HDG

Flight Plan:
(click to file on line)

1. Type
2. Aircraft Identification
3. Aircraft Type / Special Equipment
4. True Airspeed
kts
5. Departure Airport
(ICAO code)
6. Arriving Airport
(ICAO code)
7. Cruising Altitude
ft
8. Alternate Airport
(ICAO code)
9. Route of Flight
10. Remarks


00:00:00 Departure ATIS: Destination ATIS:

Clearance Limit:
Route:
Altitude: Expect in minutes
Frequency:
Transponder: (7500 Hijack / 7600 Lost Comms / 7700 Emergency)


KSNA 181418Z VRB03KT 10SM OVC010 22/18 A2993 RMK AO2 T02170178 $
Time: 2022-08-18T14:18:00Z
1660833110
Winds: variable
Visibility: 10.0 sm
Clouds (AGL): OVC 1000
Temperature: 21.7 C
Dew Point: 17.8 C
Pressure: 29.929134 in Hgbr

KSBA 181353Z 23003KT 1/4SM R07/5000VP6000FT FG OVC002 13/13 A2993 RMK AO2 SLP136 T01330128
Time: 2022-08-18T13:53:00Z
1660833110
Winds: 230 @ 3 kts
Visibility: 0.25 sm
Clouds (AGL): OVC 200
Temperature: 13.3 C
Dew Point: 12.8 C
Pressure: 29.929134 in Hgbr


Notes:

Data extracted from FAA Digital Chart Supplement. Effective: 0901Z Thursday, 27 JAN 2022 to 0900z Thursday, 24 MAR 2022
Current ATIS data is provided courtisy of PilotEdge.